Time;durP1;ratioP1;P1;durP2;ratioP2;P2;SDS_P1;SDS_P2;PMS_P1;PMS_P2;Temp;Humidity;BMP_temperature;BMP_pressure;BME280_temperature;BME280_humidity;BME280_pressure;Samples;Min_cycle;Max_cycle;Signal;HPM_P1;HPM_P2
2022/07/31 00:00:29;;;;;;;4.20;2.20;;;21.50;58.20;;;;;;9178614;19;20014;-68
2022/07/31 00:03:34;;;;;;;6.38;2.15;;;21.40;58.20;;;;;;9185534;19;20365;-68
2022/07/31 00:06:42;;;;;;;7.93;2.20;;;21.40;58.20;;;;;;9186155;19;20021;-68
2022/07/31 00:09:50;;;;;;;4.00;2.10;;;21.40;58.30;;;;;;9182923;19;20014;-67
2022/07/31 00:12:58;;;;;;;3.20;1.90;;;21.30;58.40;;;;;;9186077;19;20078;-67
2022/07/31 00:16:03;;;;;;;10.00;1.98;;;21.30;58.40;;;;;;9187424;19;20045;-67
2022/07/31 00:19:08;;;;;;;7.05;2.50;;;21.30;58.50;;;;;;9186023;19;20038;-66
2022/07/31 00:22:13;;;;;;;4.53;2.40;;;21.20;58.50;;;;;;9185509;19;20013;-66
2022/07/31 00:25:21;;;;;;;3.40;2.47;;;21.20;58.50;;;;;;9186770;19;20325;-66
2022/07/31 00:28:29;;;;;;;3.67;2.20;;;21.10;58.60;;;;;;9184103;19;20010;-66
2022/07/31 00:31:34;;;;;;;3.78;2.30;;;21.10;58.60;;;;;;9184585;19;20014;-65
2022/07/31 00:34:42;;;;;;;6.32;3.20;;;21.10;58.70;;;;;;9182238;19;20010;-67
2022/07/31 00:37:48;;;;;;;5.35;2.28;;;21.00;58.80;;;;;;9185721;19;20512;-68
2022/07/31 00:40:56;;;;;;;4.43;2.50;;;21.00;58.80;;;;;;9184160;19;20013;-67
2022/07/31 00:44:02;;;;;;;4.70;2.50;;;21.00;58.90;;;;;;9184074;19;20026;-66
2022/07/31 00:47:08;;;;;;;6.95;2.80;;;20.90;58.90;;;;;;9181389;19;20440;-66
2022/07/31 00:50:14;;;;;;;18.33;3.35;;;20.90;59.00;;;;;;9182915;19;20081;-66
2022/07/31 00:53:19;;;;;;;6.30;3.63;;;20.80;59.00;;;;;;9180743;19;20022;-67
2022/07/31 00:56:27;;;;;;;6.10;2.47;;;20.80;59.10;;;;;;9179522;19;20019;-69
2022/07/31 00:59:33;;;;;;;4.93;2.40;;;20.70;59.20;;;;;;9179899;19;20116;-66
2022/07/31 01:02:38;;;;;;;6.13;2.60;;;20.70;59.30;;;;;;9183866;19;20010;-66
2022/07/31 01:05:50;;;;;;;6.35;2.40;;;20.70;59.30;;;;;;9181718;19;20018;-66
2022/07/31 01:08:55;;;;;;;3.83;2.78;;;20.70;59.40;;;;;;9185353;19;20519;-69
2022/07/31 01:12:08;;;;;;;8.52;2.78;;;20.60;59.40;;;;;;9178480;19;20527;-69
2022/07/31 01:15:16;;;;;;;5.70;2.88;;;20.50;59.60;;;;;;9181510;19;20014;-66
2022/07/31 01:18:23;;;;;;;4.43;2.92;;;20.50;60.20;;;;;;9183994;19;20090;-67
2022/07/31 01:21:34;;;;;;;5.00;2.85;;;20.50;59.70;;;;;;9183391;19;20015;-68
2022/07/31 01:24:53;;;;;;;7.65;3.10;;;20.40;59.70;;;;;;9185005;19;20014;-67
2022/07/31 01:28:25;;;;;;;9.93;3.22;;;20.40;59.90;;;;;;9183399;19;20025;-66
2022/07/31 01:31:38;;;;;;;4.05;2.85;;;20.40;60.00;;;;;;9183232;19;20357;-66
2022/07/31 01:34:51;;;;;;;5.32;3.40;;;20.30;60.00;;;;;;9181047;19;20768;-68
2022/07/31 01:38:00;;;;;;;6.25;2.90;;;20.30;60.00;;;;;;9181534;19;20019;-69
2022/07/31 01:41:10;;;;;;;4.78;3.10;;;20.30;60.10;;;;;;9181744;19;20455;-68
2022/07/31 01:44:20;;;;;;;7.05;2.92;;;20.20;60.20;;;;;;9181707;19;20045;-67
2022/07/31 01:47:29;;;;;;;5.63;3.08;;;20.20;60.10;;;;;;9181936;19;20018;-68
2022/07/31 01:50:36;;;;;;;4.60;3.10;;;20.20;60.30;;;;;;9182669;19;20487;-67
2022/07/31 01:53:49;;;;;;;5.85;3.25;;;20.20;60.30;;;;;;9180706;19;20015;-69
2022/07/31 01:56:58;;;;;;;4.18;3.50;;;20.10;60.30;;;;;;9181751;19;20082;-67
2022/07/31 02:00:08;;;;;;;8.00;3.28;;;20.10;60.40;;;;;;9181433;19;20019;-68
2022/07/31 02:03:38;;;;;;;7.05;3.53;;;20.10;60.40;;;;;;9181006;19;20035;-67
2022/07/31 02:06:51;;;;;;;7.57;3.22;;;20.10;60.50;;;;;;9180531;19;20022;-67
2022/07/31 02:09:57;;;;;;;7.65;3.40;;;20.10;60.50;;;;;;9176270;19;20089;-66
2022/07/31 02:13:08;;;;;;;8.10;3.08;;;20.10;60.60;;;;;;9181512;19;20010;-68
2022/07/31 02:16:15;;;;;;;5.28;3.20;;;20.10;60.70;;;;;;9178107;19;20025;-67
2022/07/31 02:19:23;;;;;;;7.80;3.47;;;20.10;60.70;;;;;;9180330;19;20021;-68
2022/07/31 02:22:30;;;;;;;6.57;2.97;;;20.00;60.80;;;;;;9181443;19;20487;-66
2022/07/31 02:25:38;;;;;;;6.40;3.33;;;20.00;60.80;;;;;;9176421;19;20367;-67
2022/07/31 02:28:46;;;;;;;6.60;2.97;;;20.00;60.80;;;;;;9179721;19;20374;-67
2022/07/31 02:31:54;;;;;;;7.72;3.33;;;20.00;60.90;;;;;;9180382;19;20018;-68
2022/07/31 02:35:19;;;;;;;8.55;2.97;;;20.00;60.90;;;;;;9177974;19;20546;-66
2022/07/31 02:38:28;;;;;;;4.28;3.08;;;20.00;61.00;;;;;;9181244;19;20052;-67
2022/07/31 02:41:33;;;;;;;3.67;2.92;;;20.00;61.00;;;;;;9180008;19;20018;-68
2022/07/31 02:44:40;;;;;;;4.53;2.95;;;20.00;61.10;;;;;;9179380;19;20032;-67
2022/07/31 02:47:47;;;;;;;4.28;2.53;;;20.00;61.10;;;;;;9180170;19;20051;-66
2022/07/31 02:50:56;;;;;;;8.57;3.53;;;20.00;61.20;;;;;;9179405;19;20020;-67
2022/07/31 02:54:01;;;;;;;6.03;3.10;;;20.00;61.30;;;;;;9181038;19;20022;-69
2022/07/31 02:57:06;;;;;;;7.40;3.10;;;20.00;61.30;;;;;;9179674;19;20011;-68
2022/07/31 03:00:21;;;;;;;5.90;3.17;;;20.00;61.40;;;;;;9180277;19;20364;-68
2022/07/31 03:03:29;;;;;;;6.80;3.85;;;20.00;62.20;;;;;;9179072;19;20010;-68
2022/07/31 03:06:37;;;;;;;6.47;2.83;;;20.00;61.40;;;;;;9179041;19;20022;-67
2022/07/31 03:09:42;;;;;;;5.85;3.30;;;20.00;61.40;;;;;;9175207;19;20078;-69
2022/07/31 03:13:09;;;;;;;5.30;3.22;;;19.90;61.40;;;;;;9178606;19;20021;-66
2022/07/31 03:16:16;;;;;;;5.57;3.13;;;19.90;61.50;;;;;;9178786;19;20066;-69
2022/07/31 03:19:23;;;;;;;9.60;3.17;;;20.00;61.50;;;;;;9177877;19;20025;-66
2022/07/31 03:22:32;;;;;;;6.22;3.10;;;19.90;61.50;;;;;;9176340;19;20007;-69
2022/07/31 03:25:49;;;;;;;6.30;3.10;;;20.00;61.60;;;;;;9177991;19;20483;-67
2022/07/31 03:28:55;;;;;;;7.25;3.67;;;19.90;61.60;;;;;;9176979;19;20052;-67
2022/07/31 03:32:01;;;;;;;6.35;3.50;;;19.90;61.70;;;;;;9177796;19;20021;-68
2022/07/31 03:35:08;;;;;;;4.40;3.15;;;19.90;61.70;;;;;;9176667;19;20018;-65
2022/07/31 03:38:16;;;;;;;9.95;3.13;;;19.90;61.80;;;;;;9177944;19;20010;-67
2022/07/31 03:41:44;;;;;;;6.55;2.92;;;19.90;61.80;;;;;;9177013;19;20041;-67
2022/07/31 03:44:50;;;;;;;4.53;3.17;;;19.90;61.80;;;;;;9176765;19;20015;-69
2022/07/31 03:47:56;;;;;;;5.03;2.92;;;19.90;61.80;;;;;;9176981;19;20056;-67
2022/07/31 03:51:01;;;;;;;6.43;3.10;;;19.90;61.90;;;;;;9177047;19;20348;-69
2022/07/31 03:54:10;;;;;;;9.57;3.15;;;19.90;61.90;;;;;;9176470;19;20025;-68
2022/07/31 03:57:31;;;;;;;6.75;2.90;;;19.90;62.00;;;;;;9176558;19;20011;-67
2022/07/31 04:00:39;;;;;;;5.53;2.95;;;19.90;62.00;;;;;;9177114;19;20019;-68
2022/07/31 04:03:46;;;;;;;6.20;2.83;;;19.90;62.00;;;;;;9176656;19;20654;-68
2022/07/31 04:06:56;;;;;;;5.82;2.67;;;19.90;62.10;;;;;;9176717;19;20018;-67
2022/07/31 04:10:04;;;;;;;7.28;3.58;;;19.90;62.10;;;;;;9171984;19;20015;-66
2022/07/31 04:13:09;;;;;;;6.78;2.97;;;19.90;62.30;;;;;;9176051;19;20048;-67
2022/07/31 04:16:14;;;;;;;5.60;2.55;;;19.90;62.30;;;;;;9174967;19;20498;-69
2022/07/31 04:19:19;;;;;;;6.95;2.55;;;19.90;62.20;;;;;;9174782;19;20491;-67
2022/07/31 04:22:24;;;;;;;4.65;2.75;;;19.90;62.30;;;;;;9176771;19;20015;-69
2022/07/31 04:25:32;;;;;;;3.42;2.60;;;19.90;62.30;;;;;;9174364;19;20093;-68
2022/07/31 04:29:00;;;;;;;4.95;2.72;;;19.90;62.40;;;;;;9174335;19;20060;-69
2022/07/31 04:32:06;;;;;;;7.10;2.72;;;19.90;62.30;;;;;;9176705;19;20006;-68
2022/07/31 04:35:23;;;;;;;6.25;3.70;;;19.90;62.40;;;;;;9174985;19;20019;-69
2022/07/31 04:38:28;;;;;;;4.70;2.90;;;19.90;62.40;;;;;;9176058;19;20010;-68
2022/07/31 04:41:36;;;;;;;5.57;2.83;;;19.90;62.50;;;;;;9175731;19;20018;-69
2022/07/31 04:44:41;;;;;;;3.38;2.25;;;19.90;62.60;;;;;;9174617;19;20033;-66
2022/07/31 04:47:46;;;;;;;3.92;2.70;;;19.90;62.60;;;;;;9181579;19;20021;-67
2022/07/31 04:50:51;;;;;;;7.63;2.50;;;19.90;62.60;;;;;;9184417;19;20050;-67
2022/07/31 04:53:56;;;;;;;4.50;2.13;;;19.90;62.60;;;;;;9184555;19;20460;-65
2022/07/31 04:57:06;;;;;;;3.88;2.33;;;20.00;62.60;;;;;;9181510;19;20391;-67
2022/07/31 05:00:13;;;;;;;4.82;2.13;;;20.00;62.70;;;;;;9183604;19;20022;-68
2022/07/31 05:03:18;;;;;;;6.03;2.50;;;20.00;62.70;;;;;;9185467;19;20015;-66
2022/07/31 05:06:23;;;;;;;5.93;2.53;;;20.00;62.70;;;;;;9180229;19;20056;-68
2022/07/31 05:09:32;;;;;;;5.53;2.20;;;20.00;62.70;;;;;;9180009;19;20014;-68
2022/07/31 05:12:42;;;;;;;5.47;1.92;;;20.00;62.70;;;;;;9183327;19;20026;-67
2022/07/31 05:15:47;;;;;;;8.55;2.45;;;20.00;62.80;;;;;;9184360;19;20022;-67
2022/07/31 05:18:53;;;;;;;3.65;1.90;;;20.10;62.80;;;;;;9184854;19;20105;-67
2022/07/31 05:22:17;;;;;;;7.50;2.55;;;20.10;62.90;;;;;;9184777;19;20022;-66
2022/07/31 05:25:45;;;;;;;5.75;2.45;;;20.10;62.80;;;;;;9181953;19;20033;-68
2022/07/31 05:28:54;;;;;;;3.60;2.10;;;20.10;62.80;;;;;;9181488;19;20022;-67
2022/07/31 05:32:03;;;;;;;3.95;1.83;;;20.10;62.80;;;;;;9181061;19;20011;-67
2022/07/31 05:35:10;;;;;;;9.23;2.30;;;20.10;62.70;;;;;;9180965;19;20090;-67
2022/07/31 05:38:15;;;;;;;4.38;2.13;;;20.10;62.70;;;;;;9179598;19;20029;-68
2022/07/31 05:41:32;;;;;;;4.78;2.30;;;20.20;62.80;;;;;;9176781;19;20022;-67
2022/07/31 05:44:46;;;;;;;9.35;3.35;;;20.20;62.80;;;;;;9180633;19;20018;-68
2022/07/31 05:47:52;;;;;;;7.55;2.22;;;20.20;62.90;;;;;;9179415;19;20018;-68
2022/07/31 05:50:57;;;;;;;7.95;2.40;;;20.20;62.90;;;;;;9181279;19;20105;-66
2022/07/31 05:54:08;;;;;;;2.70;2.00;;;20.30;62.90;;;;;;9178633;19;20010;-67
2022/07/31 05:57:33;;;;;;;4.47;1.70;;;20.30;62.90;;;;;;9178071;19;20722;-66
2022/07/31 06:00:43;;;;;;;5.32;2.38;;;20.40;62.90;;;;;;9177271;19;20026;-67
2022/07/31 06:03:48;;;;;;;6.97;2.20;;;20.40;62.80;;;;;;9178257;19;20010;-68
2022/07/31 06:07:16;;;;;;;7.22;2.72;;;20.50;62.80;;;;;;9179558;19;20988;-66
2022/07/31 06:10:22;;;;;;;7.85;2.75;;;20.50;62.80;;;;;;9171680;19;20022;-67
2022/07/31 06:13:29;;;;;;;12.75;2.78;;;20.60;62.70;;;;;;9178197;19;20015;-66
2022/07/31 06:16:49;;;;;;;9.18;3.08;;;20.60;62.70;;;;;;9177621;19;20362;-67
2022/07/31 06:19:54;;;;;;;11.35;3.15;;;20.60;62.60;;;;;;9177498;19;20392;-67
2022/07/31 06:23:00;;;;;;;9.85;3.00;;;20.70;62.60;;;;;;9177603;19;20026;-67
2022/07/31 06:26:11;;;;;;;5.32;2.60;;;20.70;62.60;;;;;;9177926;19;20594;-70
2022/07/31 06:29:16;;;;;;;9.07;3.58;;;20.80;62.60;;;;;;9178194;19;20018;-68
2022/07/31 06:32:24;;;;;;;7.25;3.67;;;20.80;62.60;;;;;;9176958;19;20108;-69
2022/07/31 06:35:29;;;;;;;5.85;3.10;;;20.80;62.60;;;;;;9177101;19;20010;-68
2022/07/31 06:39:00;;;;;;;7.47;3.42;;;20.80;62.50;;;;;;9176779;19;20027;-67
2022/07/31 06:42:05;;;;;;;6.70;3.35;;;20.90;62.60;;;;;;9177066;19;20022;-67
2022/07/31 06:45:12;;;;;;;7.13;3.85;;;20.90;62.60;;;;;;9177461;19;20130;-68
2022/07/31 06:49:00;;;;;;;9.07;4.63;;;20.90;62.60;;;;;;9175548;19;20370;-67
2022/07/31 06:52:12;;;;;;;6.55;4.10;;;21.00;62.60;;;;;;9179068;19;20029;-67
2022/07/31 06:55:17;;;;;;;6.57;4.40;;;21.00;62.70;;;;;;9176314;19;20090;-67
2022/07/31 06:58:22;;;;;;;9.13;4.78;;;21.10;62.70;;;;;;9174485;19;20025;-66
2022/07/31 07:01:27;;;;;;;8.50;4.10;;;21.10;62.70;;;;;;9178063;19;20018;-68
2022/07/31 07:04:34;;;;;;;9.07;4.75;;;21.10;62.70;;;;;;9176744;19;20053;-68
2022/07/31 07:07:59;;;;;;;9.23;5.05;;;21.20;62.80;;;;;;9174769;19;20019;-67
2022/07/31 07:11:05;;;;;;;6.95;4.60;;;21.20;62.80;;;;;;9172272;19;20034;-68
2022/07/31 07:14:16;;;;;;;9.40;5.75;;;21.30;62.90;;;;;;9177287;19;20367;-67
2022/07/31 07:17:21;;;;;;;13.38;5.15;;;21.30;62.90;;;;;;9171337;19;20503;-67
2022/07/31 07:20:35;;;;;;;9.85;5.25;;;21.30;62.90;;;;;;9172290;19;20010;-68
2022/07/31 07:23:40;;;;;;;9.93;5.82;;;21.40;63.00;;;;;;9175001;19;20019;-67
2022/07/31 07:27:06;;;;;;;10.68;5.68;;;21.50;63.00;;;;;;9172418;19;20443;-68
2022/07/31 07:30:12;;;;;;;13.18;6.20;;;21.50;63.00;;;;;;9170533;19;20015;-68
2022/07/31 07:33:18;;;;;;;8.35;5.60;;;21.60;63.00;;;;;;9171574;19;20014;-69
2022/07/31 07:36:46;;;;;;;11.98;6.07;;;21.60;63.00;;;;;;9176428;19;20730;-67
2022/07/31 07:39:58;;;;;;;9.73;5.70;;;21.70;63.00;;;;;;9175342;19;20047;-66
2022/07/31 07:43:08;;;;;;;12.55;5.70;;;21.70;63.00;;;;;;9178807;19;20053;-67
2022/07/31 07:46:13;;;;;;;8.95;5.57;;;21.80;63.00;;;;;;9176766;19;20026;-68
2022/07/31 07:49:23;;;;;;;11.60;5.22;;;21.90;63.10;;;;;;9169924;19;20018;-69
2022/07/31 07:53:02;;;;;;;13.82;5.72;;;21.90;63.10;;;;;;9169823;19;20476;-68
2022/07/31 07:56:46;;;;;;;14.88;5.75;;;22.00;63.20;;;;;;9166286;19;20023;-67
2022/07/31 08:00:02;;;;;;;13.48;5.55;;;22.00;63.10;;;;;;9167951;19;20022;-68
2022/07/31 08:03:29;;;;;;;10.05;5.80;;;22.00;63.20;;;;;;9167726;19;20029;-68
2022/07/31 08:06:54;;;;;;;8.98;5.35;;;22.10;63.30;;;;;;9171450;19;20409;-68
2022/07/31 08:10:07;;;;;;;8.93;6.07;;;22.10;63.30;;;;;;9164782;19;20019;-67
2022/07/31 08:13:25;;;;;;;10.60;5.47;;;22.20;63.50;;;;;;9168720;19;20032;-67
2022/07/31 08:16:48;;;;;;;9.93;6.03;;;22.20;63.40;;;;;;9170360;19;20037;-69
2022/07/31 08:19:53;;;;;;;9.90;5.68;;;22.30;63.40;;;;;;9160256;19;20025;-69
2022/07/31 08:22:58;;;;;;;10.82;5.80;;;22.30;63.50;;;;;;9170654;19;20026;-65
2022/07/31 08:26:07;;;;;;;8.68;5.30;;;22.40;63.60;;;;;;9176017;19;20025;-66
2022/07/31 08:29:12;;;;;;;15.27;6.60;;;22.40;63.60;;;;;;9179160;19;20015;-68
2022/07/31 08:32:21;;;;;;;17.50;7.03;;;22.40;63.70;;;;;;9178508;19;20029;-67
2022/07/31 08:35:41;;;;;;;7.25;5.22;;;22.50;63.80;;;;;;9179683;19;20010;-66
2022/07/31 08:38:54;;;;;;;13.52;7.72;;;22.60;63.80;;;;;;9174651;19;20023;-67
2022/07/31 08:42:26;;;;;;;14.75;7.82;;;22.60;63.80;;;;;;9178090;19;20031;-68
2022/07/31 08:45:32;;;;;;;11.93;7.93;;;22.70;63.90;;;;;;9178626;19;20023;-68
2022/07/31 08:49:04;;;;;;;16.33;9.27;;;22.80;63.90;;;;;;9177579;19;20547;-68
2022/07/31 08:52:23;;;;;;;18.63;10.07;;;22.80;63.90;;;;;;9176629;19;20090;-69
2022/07/31 08:55:36;;;;;;;22.42;10.77;;;22.90;64.00;;;;;;9178584;19;20190;-68
2022/07/31 08:59:05;;;;;;;20.23;10.82;;;23.00;64.00;;;;;;9173412;19;20025;-70
2022/07/31 09:02:12;;;;;;;17.92;10.30;;;23.00;63.90;;;;;;9177701;19;20022;-72
2022/07/31 09:05:33;;;;;;;18.00;10.68;;;23.10;63.90;;;;;;9165989;19;20015;-68
2022/07/31 09:08:47;;;;;;;17.65;10.55;;;23.20;63.80;;;;;;9170745;19;20514;-69
2022/07/31 09:11:53;;;;;;;16.90;10.20;;;23.30;63.80;;;;;;9166825;19;20606;-69
2022/07/31 09:15:35;;;;;;;15.82;9.43;;;23.40;63.70;;;;;;9171158;19;20023;-68
2022/07/31 09:18:44;;;;;;;16.05;9.98;;;23.40;63.70;;;;;;9166620;19;20499;-67
2022/07/31 09:21:51;;;;;;;14.50;9.93;;;23.50;63.60;;;;;;9169776;19;20036;-67
2022/07/31 09:25:10;;;;;;;22.02;9.88;;;23.60;63.60;;;;;;9172979;19;20023;-66
2022/07/31 09:28:16;;;;;;;18.38;11.48;;;23.60;63.50;;;;;;9170112;19;20029;-68
2022/07/31 09:31:34;;;;;;;19.30;10.90;;;23.60;63.40;;;;;;9169496;19;20119;-68
2022/07/31 09:35:14;;;;;;;21.85;10.27;;;23.70;63.40;;;;;;9169261;19;20017;-67
2022/07/31 09:38:22;;;;;;;16.25;10.25;;;23.70;63.50;;;;;;9168106;19;20077;-68
2022/07/31 09:41:57;;;;;;;16.10;9.73;;;23.70;63.30;;;;;;9170337;19;20014;-66
2022/07/31 09:45:28;;;;;;;;;;;23.80;63.30;;;;;;9170040;19;20034;-67
2022/07/31 09:48:36;;;;;;;18.17;10.98;;;23.80;63.20;;;;;;9167252;19;19922;-67
2022/07/31 09:51:50;;;;;;;20.83;11.82;;;23.80;63.30;;;;;;9167131;19;20518;-65
2022/07/31 09:55:06;;;;;;;23.15;12.68;;;23.80;63.50;;;;;;9167819;19;20032;-67
2022/07/31 09:58:21;;;;;;;24.27;12.23;;;23.80;63.80;;;;;;9167342;19;20399;-67
2022/07/31 10:01:28;;;;;;;26.48;13.50;;;23.80;63.70;;;;;;9168921;19;20023;-66
2022/07/31 10:04:38;;;;;;;22.10;13.60;;;23.80;63.90;;;;;;9166180;19;20030;-66
2022/07/31 10:07:49;;;;;;;22.00;13.48;;;23.70;64.20;;;;;;9167671;19;20018;-67
2022/07/31 10:10:59;;;;;;;20.85;13.57;;;23.70;64.20;;;;;;9164784;19;20056;-68
2022/07/31 10:14:12;;;;;;;24.95;13.57;;;23.60;64.30;;;;;;9167716;19;20034;-67
2022/07/31 10:17:22;;;;;;;24.20;14.30;;;23.60;64.50;;;;;;9166698;19;20082;-67
2022/07/31 10:20:57;;;;;;;21.38;14.07;;;23.60;64.80;;;;;;9166428;19;20014;-69
2022/07/31 10:24:22;;;;;;;22.45;12.50;;;23.50;65.00;;;;;;9167516;19;20023;-67
2022/07/31 10:27:34;;;;;;;23.13;13.95;;;23.40;64.90;;;;;;9165912;19;20090;-66
2022/07/31 10:30:47;;;;;;;19.45;13.82;;;23.40;65.10;;;;;;9167743;19;20106;-71
2022/07/31 10:33:54;;;;;;;24.38;14.00;;;23.30;65.30;;;;;;9172724;19;20651;-69
2022/07/31 10:37:33;;;;;;;27.55;14.35;;;23.30;65.50;;;;;;9170887;19;20022;-68
2022/07/31 10:41:05;;;;;;;23.98;15.32;;;23.30;65.80;;;;;;9170065;19;20015;-73
2022/07/31 10:44:15;;;;;;;31.15;14.93;;;23.30;65.70;;;;;;9166440;19;20022;-72
2022/07/31 10:47:42;;;;;;;24.40;12.57;;;23.30;65.80;;;;;;9164208;19;20006;-74
2022/07/31 10:51:13;;;;;;;17.60;11.73;;;23.30;65.70;;;;;;9165417;19;20014;-74
2022/07/31 10:54:49;;;;;;;21.40;11.00;;;23.40;65.70;;;;;;9168636;19;20051;-71
2022/07/31 10:58:26;;;;;;;18.60;9.80;;;23.30;65.80;;;;;;9159271;19;20019;-72
2022/07/31 11:02:01;;;;;;;17.90;9.40;;;23.40;65.70;;;;;;9166830;19;20096;-73
2022/07/31 11:05:35;;;;;;;18.10;10.67;;;23.40;65.70;;;;;;9156007;19;20117;-70
2022/07/31 11:09:24;;;;;;;13.40;8.80;;;23.40;65.70;;;;;;9161866;19;20014;-73
2022/07/31 11:12:45;;;;;;;20.37;9.13;;;23.40;65.60;;;;;;9164529;19;20025;-72
2022/07/31 11:16:15;;;;;;;13.73;7.82;;;23.50;65.60;;;;;;9161667;19;20495;-71
2022/07/31 11:19:43;;;;;;;14.70;7.30;;;23.50;65.50;;;;;;9159892;19;20025;-73
2022/07/31 11:22:59;;;;;;;10.07;6.22;;;23.50;65.50;;;;;;9164985;19;20029;-77
2022/07/31 11:26:07;;;;;;;12.07;5.90;;;23.50;65.60;;;;;;9165149;19;20019;-77
2022/07/31 11:29:15;;;;;;;9.45;5.57;;;23.50;65.50;;;;;;9162278;19;20018;-74
2022/07/31 11:32:48;;;;;;;11.82;6.35;;;23.50;65.50;;;;;;9165875;19;20011;-74
2022/07/31 11:35:56;;;;;;;8.10;5.38;;;23.50;65.40;;;;;;9164393;19;20483;-69
2022/07/31 11:39:02;;;;;;;11.43;6.47;;;23.50;65.40;;;;;;9162943;19;20110;-69
2022/07/31 11:42:09;;;;;;;10.18;6.05;;;23.50;65.40;;;;;;9162079;19;20026;-67
2022/07/31 11:45:17;;;;;;;12.45;6.85;;;23.50;65.60;;;;;;9159992;19;20086;-69
2022/07/31 11:48:25;;;;;;;8.40;6.43;;;23.50;65.80;;;;;;9159291;19;20029;-69
2022/07/31 11:51:32;;;;;;;10.50;6.65;;;23.50;65.80;;;;;;9160602;19;20112;-67
2022/07/31 11:54:38;;;;;;;14.38;8.50;;;23.40;65.90;;;;;;9159577;19;20010;-68
2022/07/31 11:57:44;;;;;;;11.02;7.32;;;23.40;66.10;;;;;;9167430;19;20028;-67
2022/07/31 12:01:00;;;;;;;13.70;8.23;;;23.50;66.30;;;;;;9175338;19;20019;-69
2022/07/31 12:04:05;;;;;;;13.27;9.20;;;23.40;66.40;;;;;;9171785;19;20022;-67
2022/07/31 12:07:13;;;;;;;14.32;9.90;;;23.40;66.40;;;;;;9172361;19;20026;-68
2022/07/31 12:10:18;;;;;;;20.88;10.15;;;23.40;66.70;;;;;;9162401;19;20026;-68
2022/07/31 12:13:24;;;;;;;14.07;10.02;;;23.30;66.90;;;;;;9170661;19;20880;-67
2022/07/31 12:16:41;;;;;;;14.00;9.88;;;23.30;67.10;;;;;;9169687;19;20863;-66
2022/07/31 12:19:46;;;;;;;18.92;10.50;;;23.30;67.50;;;;;;9165846;19;20697;-66
2022/07/31 12:22:59;;;;;;;15.95;10.25;;;23.20;67.40;;;;;;9170424;19;20019;-67
2022/07/31 12:26:04;;;;;;;18.17;11.70;;;23.20;67.80;;;;;;9173494;19;20029;-67
2022/07/31 12:29:11;;;;;;;19.30;11.90;;;23.20;67.90;;;;;;9178611;19;20021;-66
2022/07/31 12:32:26;;;;;;;17.08;11.90;;;23.10;68.00;;;;;;9177524;19;20404;-65
2022/07/31 12:35:37;;;;;;;16.27;12.43;;;23.00;68.40;;;;;;9178950;19;20492;-66
2022/07/31 12:39:01;;;;;;;20.55;12.85;;;23.00;68.50;;;;;;9173374;19;20019;-66
2022/07/31 12:42:08;;;;;;;22.70;15.73;;;23.00;68.50;;;;;;9177845;19;20026;-66
2022/07/31 12:45:13;;;;;;;22.67;15.20;;;22.90;68.50;;;;;;9178706;19;20111;-65
2022/07/31 12:48:26;;;;;;;23.83;15.20;;;22.90;68.70;;;;;;9185168;19;20045;-65
2022/07/31 12:51:33;;;;;;;23.23;14.98;;;22.90;69.00;;;;;;9186307;19;20012;-65
2022/07/31 12:54:50;;;;;;;26.15;15.40;;;22.80;69.70;;;;;;9183601;19;20018;-65
2022/07/31 12:57:55;;;;;;;24.20;14.48;;;22.80;69.20;;;;;;9182613;19;20784;-65
2022/07/31 13:01:00;;;;;;;20.70;13.45;;;22.80;69.30;;;;;;9180004;19;20380;-65
2022/07/31 13:04:08;;;;;;;21.27;14.27;;;22.70;69.40;;;;;;9183666;19;20014;-65
2022/07/31 13:07:23;;;;;;;20.60;14.18;;;22.70;69.60;;;;;;9182495;19;20027;-64
2022/07/31 13:10:28;;;;;;;20.25;13.63;;;22.70;69.60;;;;;;9181347;19;20010;-66
2022/07/31 13:13:36;;;;;;;19.20;13.05;;;22.60;69.70;;;;;;9185313;19;20014;-67
2022/07/31 13:16:41;;;;;;;20.75;14.02;;;22.60;69.80;;;;;;9185604;19;20014;-64
2022/07/31 13:19:49;;;;;;;19.55;13.52;;;22.60;70.00;;;;;;9185571;19;20011;-65
2022/07/31 13:22:54;;;;;;;19.35;13.48;;;22.60;70.20;;;;;;9186240;19;20007;-64
2022/07/31 13:26:00;;;;;;;25.85;12.57;;;22.60;70.20;;;;;;9184283;19;20347;-65
2022/07/31 13:29:06;;;;;;;19.13;12.00;;;22.50;70.30;;;;;;9184322;19;20482;-66
2022/07/31 13:32:11;;;;;;;15.95;11.77;;;22.60;70.50;;;;;;9183389;19;20018;-65
2022/07/31 13:35:20;;;;;;;17.88;11.63;;;22.50;70.50;;;;;;9182903;19;20018;-66
2022/07/31 13:38:32;;;;;;;23.25;12.63;;;22.50;70.80;;;;;;9185144;19;20011;-65
2022/07/31 13:41:38;;;;;;;16.30;11.95;;;22.50;70.80;;;;;;9180047;19;20614;-64
2022/07/31 13:44:43;;;;;;;17.65;11.77;;;22.50;70.90;;;;;;9183037;19;20112;-65
2022/07/31 13:47:49;;;;;;;16.48;11.15;;;22.50;70.90;;;;;;9184971;19;20010;-66
2022/07/31 13:50:58;;;;;;;15.75;11.18;;;22.50;71.10;;;;;;9183300;19;20443;-64
2022/07/31 13:54:03;;;;;;;17.63;11.13;;;22.60;71.30;;;;;;9185239;19;20082;-66
2022/07/31 13:57:09;;;;;;;17.13;11.95;;;22.60;71.30;;;;;;9184618;19;20353;-64
2022/07/31 14:00:15;;;;;;;18.77;12.35;;;22.60;71.30;;;;;;9177194;19;20010;-64
2022/07/31 14:03:20;;;;;;;17.75;12.38;;;22.60;71.40;;;;;;9183500;19;20638;-65
2022/07/31 14:06:29;;;;;;;17.55;11.88;;;22.70;71.50;;;;;;9181379;19;20025;-65
2022/07/31 14:09:36;;;;;;;18.30;12.00;;;22.70;71.60;;;;;;9179019;19;20011;-64
2022/07/31 14:12:41;;;;;;;17.48;12.77;;;22.70;71.50;;;;;;9182905;19;20014;-66
2022/07/31 14:15:46;;;;;;;20.58;13.02;;;22.70;71.50;;;;;;9181567;19;20017;-66
2022/07/31 14:18:51;;;;;;;16.27;12.10;;;22.80;71.60;;;;;;9179880;19;20015;-66
2022/07/31 14:21:59;;;;;;;20.33;13.30;;;22.80;71.60;;;;;;9179207;19;20024;-66
2022/07/31 14:25:05;;;;;;;16.20;11.52;;;22.80;71.70;;;;;;9181254;19;20018;-65
2022/07/31 14:28:11;;;;;;;17.98;12.30;;;22.90;71.70;;;;;;9181217;19;20473;-65
2022/07/31 14:31:16;;;;;;;15.55;10.80;;;22.90;71.70;;;;;;9180357;19;20014;-65
2022/07/31 14:34:21;;;;;;;19.77;11.20;;;22.90;71.70;;;;;;9180718;19;20021;-65
2022/07/31 14:37:42;;;;;;;16.13;12.48;;;23.00;71.80;;;;;;9179376;19;20108;-66
2022/07/31 14:40:47;;;;;;;20.25;12.95;;;23.00;71.90;;;;;;9178801;19;20019;-66
2022/07/31 14:43:52;;;;;;;18.42;11.23;;;23.00;71.90;;;;;;9180232;19;20022;-65
2022/07/31 14:46:57;;;;;;;19.10;13.00;;;23.10;72.00;;;;;;9179865;19;20022;-66
2022/07/31 14:50:02;;;;;;;20.35;12.13;;;23.10;72.00;;;;;;9181699;19;20014;-67
2022/07/31 14:53:16;;;;;;;15.93;11.80;;;23.20;72.10;;;;;;9181853;19;20353;-67
2022/07/31 14:56:21;;;;;;;16.58;11.27;;;23.30;72.20;;;;;;9181703;19;20006;-67
2022/07/31 14:59:46;;;;;;;13.30;10.18;;;23.30;72.00;;;;;;9179042;19;20014;-66
2022/07/31 15:02:51;;;;;;;15.35;11.20;;;23.50;72.00;;;;;;9179107;19;20014;-68
2022/07/31 15:05:56;;;;;;;15.32;11.10;;;23.50;71.90;;;;;;9178115;19;20356;-66
2022/07/31 15:09:24;;;;;;;14.15;10.30;;;23.60;71.90;;;;;;9177414;19;20049;-68
2022/07/31 15:12:29;;;;;;;13.25;9.70;;;23.70;71.90;;;;;;9180585;19;20006;-66
2022/07/31 15:15:34;;;;;;;16.33;10.90;;;23.70;71.80;;;;;;9180795;19;20035;-66
2022/07/31 15:18:39;;;;;;;17.10;9.48;;;23.70;71.60;;;;;;9178827;19;20365;-67
2022/07/31 15:21:46;;;;;;;15.38;8.68;;;23.80;71.50;;;;;;9178392;19;20017;-66
2022/07/31 15:25:14;;;;;;;12.10;8.13;;;23.90;71.50;;;;;;9178817;19;20021;-65
2022/07/31 15:28:19;;;;;;;20.40;8.80;;;23.90;71.30;;;;;;9178336;19;20089;-66
2022/07/31 15:31:25;;;;;;;13.00;7.82;;;23.90;71.30;;;;;;9179511;19;20015;-66
2022/07/31 15:34:31;;;;;;;11.45;7.75;;;23.90;71.20;;;;;;9175499;19;20377;-66
2022/07/31 15:37:37;;;;;;;12.60;7.38;;;23.90;71.10;;;;;;9180109;19;20022;-67
2022/07/31 15:40:45;;;;;;;14.75;6.65;;;24.00;71.10;;;;;;9177202;19;20013;-66
2022/07/31 15:43:50;;;;;;;11.88;6.57;;;24.00;71.30;;;;;;9179554;19;20010;-66
2022/07/31 15:46:55;;;;;;;11.73;5.75;;;24.00;71.10;;;;;;9178294;19;20104;-66
2022/07/31 15:50:01;;;;;;;11.30;5.63;;;24.00;71.10;;;;;;9180135;19;20014;-65
2022/07/31 15:53:06;;;;;;;8.90;5.75;;;24.00;71.10;;;;;;9178392;19;20017;-65
2022/07/31 15:56:13;;;;;;;14.88;7.38;;;24.00;71.10;;;;;;9179787;19;20015;-65
2022/07/31 15:59:18;;;;;;;11.75;8.38;;;23.90;71.20;;;;;;9177455;19;20030;-64
2022/07/31 16:02:25;;;;;;;17.73;10.23;;;23.90;71.40;;;;;;9176216;19;20025;-65
2022/07/31 16:05:30;;;;;;;13.43;8.93;;;23.90;71.60;;;;;;9175739;19;20019;-65
2022/07/31 16:08:40;;;;;;;12.95;8.55;;;23.80;71.80;;;;;;9177191;19;20018;-65
2022/07/31 16:11:48;;;;;;;10.15;7.70;;;23.70;72.00;;;;;;9173980;19;20021;-65
2022/07/31 16:15:10;;;;;;;10.13;6.82;;;23.70;72.30;;;;;;9178982;19;20023;-64
2022/07/31 16:18:15;;;;;;;10.27;7.15;;;23.70;72.40;;;;;;9178108;19;20128;-65
2022/07/31 16:21:22;;;;;;;11.57;6.20;;;23.60;72.50;;;;;;9175853;19;20479;-64
2022/07/31 16:24:27;;;;;;;7.53;4.93;;;23.60;72.50;;;;;;9178509;19;20026;-65